チュニス の空港の天気 - METARとTAF

チュニス・カルタゴ国際空港 ( DTTA / TUN ) - チュニジア チュニス
飛行場実況気象(Metar)
観測時間02/17 15:30 CET (02/17 14:30 UTC)
風向・風速東南東 4m/s
視程10km以上
天気現象
少しの雲 雲底高度 1010m
気温16℃
湿度39%
気圧1027hPa
METARDTTA 171430Z 11008KT 040V150 9999 FEW033 16/02 Q1027 NOSIG
過去の天気等 Google飛行場航空写真 Wunderground天気予報

過去48時間のMETAR

飛行場予報(TAF)
発表時間: 2/17 12:00 CET (2/17 11:00 UTC)
予報対象時間: 17日13時 CET ~ 18日13時 CET
風向・風速不定 2m/s
視程10km以上
少しの雲 雲底高度 1010m
17日13時 CET ~ 17日15時 CET に徐々に
風向・風速東南東 5m/s
17日23時 CET ~ 18日1時 CET に徐々に
風向・風速南 5m/s
TAF DTTA 171100Z 1712/1812 VRB03KT 9999 FEW033
BECMG 1712/1714 12010KT
BECMG 1722/1724 18010KT